sensor_id;sensor_type;location;lat;lon;timestamp;P1;durP1;ratioP1;P2;durP2;ratioP2
15958;SDS011;8078;47.822;9.402;2022-08-14T00:00:46;5.32;;;3.25;;
15958;SDS011;8078;47.822;9.402;2022-08-14T00:03:20;3.72;;;3.28;;
15958;SDS011;8078;47.822;9.402;2022-08-14T00:05:48;5.03;;;3.17;;
15958;SDS011;8078;47.822;9.402;2022-08-14T00:08:14;3.78;;;3.10;;
15958;SDS011;8078;47.822;9.402;2022-08-14T00:10:40;5.50;;;3.40;;
15958;SDS011;8078;47.822;9.402;2022-08-14T00:13:06;4.40;;;3.35;;
15958;SDS011;8078;47.822;9.402;2022-08-14T00:15:36;3.83;;;3.38;;
15958;SDS011;8078;47.822;9.402;2022-08-14T00:18:04;3.63;;;3.33;;
15958;SDS011;8078;47.822;9.402;2022-08-14T00:20:32;3.80;;;3.50;;
15958;SDS011;8078;47.822;9.402;2022-08-14T00:22:59;5.13;;;3.20;;
15958;SDS011;8078;47.822;9.402;2022-08-14T00:25:25;3.90;;;3.13;;
15958;SDS011;8078;47.822;9.402;2022-08-14T00:27:51;4.38;;;3.25;;
15958;SDS011;8078;47.822;9.402;2022-08-14T00:30:18;5.20;;;3.75;;
15958;SDS011;8078;47.822;9.402;2022-08-14T00:32:43;3.83;;;3.40;;
15958;SDS011;8078;47.822;9.402;2022-08-14T00:35:10;3.55;;;3.25;;
15958;SDS011;8078;47.822;9.402;2022-08-14T00:37:37;4.88;;;3.35;;
15958;SDS011;8078;47.822;9.402;2022-08-14T00:40:04;3.63;;;3.33;;
15958;SDS011;8078;47.822;9.402;2022-08-14T00:42:32;3.80;;;3.47;;
15958;SDS011;8078;47.822;9.402;2022-08-14T00:44:57;3.47;;;3.17;;
15958;SDS011;8078;47.822;9.402;2022-08-14T00:47:23;4.07;;;3.60;;
15958;SDS011;8078;47.822;9.402;2022-08-14T00:49:49;3.97;;;3.30;;
15958;SDS011;8078;47.822;9.402;2022-08-14T00:52:17;4.85;;;3.45;;
15958;SDS011;8078;47.822;9.402;2022-08-14T00:54:44;4.18;;;3.55;;
15958;SDS011;8078;47.822;9.402;2022-08-14T00:57:22;3.97;;;3.10;;
15958;SDS011;8078;47.822;9.402;2022-08-14T00:59:49;4.82;;;3.47;;
15958;SDS011;8078;47.822;9.402;2022-08-14T01:02:16;3.67;;;3.30;;
15958;SDS011;8078;47.822;9.402;2022-08-14T01:04:44;3.08;;;2.83;;
15958;SDS011;8078;47.822;9.402;2022-08-14T01:07:11;3.95;;;3.58;;
15958;SDS011;8078;47.822;9.402;2022-08-14T01:09:42;3.90;;;3.50;;
15958;SDS011;8078;47.822;9.402;2022-08-14T01:12:08;4.43;;;3.40;;
15958;SDS011;8078;47.822;9.402;2022-08-14T01:14:35;5.40;;;3.40;;
15958;SDS011;8078;47.822;9.402;2022-08-14T01:17:01;3.40;;;3.10;;
15958;SDS011;8078;47.822;9.402;2022-08-14T01:19:28;5.10;;;3.63;;
15958;SDS011;8078;47.822;9.402;2022-08-14T01:22:12;3.67;;;3.38;;
15958;SDS011;8078;47.822;9.402;2022-08-14T01:24:40;3.20;;;2.90;;
15958;SDS011;8078;47.822;9.402;2022-08-14T01:27:05;3.53;;;3.22;;
15958;SDS011;8078;47.822;9.402;2022-08-14T01:29:31;3.05;;;2.83;;
15958;SDS011;8078;47.822;9.402;2022-08-14T01:32:02;5.22;;;3.08;;
15958;SDS011;8078;47.822;9.402;2022-08-14T01:34:28;3.45;;;3.15;;
15958;SDS011;8078;47.822;9.402;2022-08-14T01:36:57;3.40;;;3.10;;
15958;SDS011;8078;47.822;9.402;2022-08-14T01:39:23;3.38;;;3.08;;
15958;SDS011;8078;47.822;9.402;2022-08-14T01:41:49;4.13;;;3.20;;
15958;SDS011;8078;47.822;9.402;2022-08-14T01:44:25;6.38;;;2.92;;
15958;SDS011;8078;47.822;9.402;2022-08-14T01:46:55;6.82;;;3.28;;
15958;SDS011;8078;47.822;9.402;2022-08-14T01:49:23;3.50;;;3.20;;
15958;SDS011;8078;47.822;9.402;2022-08-14T01:51:49;3.33;;;3.03;;
15958;SDS011;8078;47.822;9.402;2022-08-14T01:54:21;3.33;;;3.03;;
15958;SDS011;8078;47.822;9.402;2022-08-14T01:56:52;4.45;;;3.22;;
15958;SDS011;8078;47.822;9.402;2022-08-14T02:01:49;3.95;;;3.55;;
15958;SDS011;8078;47.822;9.402;2022-08-14T02:04:16;3.70;;;3.40;;
15958;SDS011;8078;47.822;9.402;2022-08-14T02:06:44;3.90;;;3.47;;
15958;SDS011;8078;47.822;9.402;2022-08-14T02:09:11;6.70;;;3.38;;
15958;SDS011;8078;47.822;9.402;2022-08-14T02:11:37;3.72;;;3.42;;
15958;SDS011;8078;47.822;9.402;2022-08-14T02:14:08;4.00;;;3.70;;
15958;SDS011;8078;47.822;9.402;2022-08-14T02:16:37;4.15;;;3.75;;
15958;SDS011;8078;47.822;9.402;2022-08-14T02:19:06;4.93;;;4.30;;
15958;SDS011;8078;47.822;9.402;2022-08-14T02:21:34;5.07;;;3.53;;
15958;SDS011;8078;47.822;9.402;2022-08-14T02:24:03;3.88;;;3.58;;
15958;SDS011;8078;47.822;9.402;2022-08-14T02:26:31;4.20;;;3.80;;
15958;SDS011;8078;47.822;9.402;2022-08-14T02:29:07;5.20;;;4.13;;
15958;SDS011;8078;47.822;9.402;2022-08-14T02:31:35;4.57;;;3.85;;
15958;SDS011;8078;47.822;9.402;2022-08-14T02:34:04;6.57;;;3.97;;
15958;SDS011;8078;47.822;9.402;2022-08-14T02:36:31;4.00;;;3.60;;
15958;SDS011;8078;47.822;9.402;2022-08-14T02:38:57;7.18;;;4.15;;
15958;SDS011;8078;47.822;9.402;2022-08-14T02:41:23;7.05;;;4.13;;
15958;SDS011;8078;47.822;9.402;2022-08-14T02:43:49;4.63;;;4.13;;
15958;SDS011;8078;47.822;9.402;2022-08-14T02:46:15;5.03;;;4.30;;
15958;SDS011;8078;47.822;9.402;2022-08-14T02:48:41;5.85;;;4.78;;
15958;SDS011;8078;47.822;9.402;2022-08-14T02:51:11;4.68;;;4.20;;
15958;SDS011;8078;47.822;9.402;2022-08-14T02:53:39;4.53;;;4.13;;
15958;SDS011;8078;47.822;9.402;2022-08-14T02:56:07;5.38;;;4.40;;
15958;SDS011;8078;47.822;9.402;2022-08-14T02:58:36;4.68;;;3.83;;
15958;SDS011;8078;47.822;9.402;2022-08-14T03:01:04;4.80;;;4.15;;
15958;SDS011;8078;47.822;9.402;2022-08-14T03:03:34;6.35;;;4.05;;
15958;SDS011;8078;47.822;9.402;2022-08-14T03:06:01;4.93;;;4.32;;
15958;SDS011;8078;47.822;9.402;2022-08-14T03:08:30;4.40;;;4.00;;
15958;SDS011;8078;47.822;9.402;2022-08-14T03:10:57;4.28;;;3.88;;
15958;SDS011;8078;47.822;9.402;2022-08-14T03:13:30;5.82;;;4.75;;
15958;SDS011;8078;47.822;9.402;2022-08-14T03:16:00;4.75;;;4.35;;
15958;SDS011;8078;47.822;9.402;2022-08-14T03:18:26;4.38;;;3.90;;
15958;SDS011;8078;47.822;9.402;2022-08-14T03:20:52;6.97;;;4.00;;
15958;SDS011;8078;47.822;9.402;2022-08-14T03:23:18;4.28;;;3.97;;
15958;SDS011;8078;47.822;9.402;2022-08-14T03:25:45;4.00;;;3.70;;
15958;SDS011;8078;47.822;9.402;2022-08-14T03:28:11;5.03;;;3.95;;
15958;SDS011;8078;47.822;9.402;2022-08-14T03:30:38;4.78;;;3.83;;
15958;SDS011;8078;47.822;9.402;2022-08-14T03:33:05;4.20;;;3.80;;
15958;SDS011;8078;47.822;9.402;2022-08-14T03:35:32;4.18;;;3.80;;
15958;SDS011;8078;47.822;9.402;2022-08-14T03:38:08;4.40;;;4.00;;
15958;SDS011;8078;47.822;9.402;2022-08-14T03:40:36;4.50;;;4.10;;
15958;SDS011;8078;47.822;9.402;2022-08-14T03:43:08;7.15;;;4.65;;
15958;SDS011;8078;47.822;9.402;2022-08-14T03:45:36;4.55;;;4.15;;
15958;SDS011;8078;47.822;9.402;2022-08-14T03:48:10;4.32;;;3.92;;
15958;SDS011;8078;47.822;9.402;2022-08-14T03:50:39;5.03;;;3.70;;
15958;SDS011;8078;47.822;9.402;2022-08-14T03:53:08;4.40;;;4.00;;
15958;SDS011;8078;47.822;9.402;2022-08-14T03:55:34;5.45;;;4.47;;
15958;SDS011;8078;47.822;9.402;2022-08-14T03:58:02;7.50;;;4.55;;
15958;SDS011;8078;47.822;9.402;2022-08-14T04:00:27;5.63;;;4.18;;
15958;SDS011;8078;47.822;9.402;2022-08-14T04:02:53;9.90;;;4.90;;
15958;SDS011;8078;47.822;9.402;2022-08-14T04:05:19;4.75;;;4.28;;
15958;SDS011;8078;47.822;9.402;2022-08-14T04:07:45;5.65;;;4.10;;
15958;SDS011;8078;47.822;9.402;2022-08-14T04:10:11;6.18;;;4.88;;
15958;SDS011;8078;47.822;9.402;2022-08-14T04:12:37;5.90;;;4.53;;
15958;SDS011;8078;47.822;9.402;2022-08-14T04:15:03;5.43;;;4.18;;
15958;SDS011;8078;47.822;9.402;2022-08-14T04:17:30;6.60;;;4.13;;
15958;SDS011;8078;47.822;9.402;2022-08-14T04:19:57;5.57;;;4.57;;
15958;SDS011;8078;47.822;9.402;2022-08-14T04:22:28;8.50;;;4.20;;
15958;SDS011;8078;47.822;9.402;2022-08-14T04:24:58;4.53;;;4.00;;
15958;SDS011;8078;47.822;9.402;2022-08-14T04:27:25;4.18;;;3.58;;
15958;SDS011;8078;47.822;9.402;2022-08-14T04:29:51;5.03;;;3.97;;
15958;SDS011;8078;47.822;9.402;2022-08-14T04:32:17;6.57;;;4.13;;
15958;SDS011;8078;47.822;9.402;2022-08-14T04:34:44;6.95;;;3.83;;
15958;SDS011;8078;47.822;9.402;2022-08-14T04:37:09;4.32;;;3.42;;
15958;SDS011;8078;47.822;9.402;2022-08-14T04:39:53;5.47;;;3.28;;
15958;SDS011;8078;47.822;9.402;2022-08-14T04:42:39;6.15;;;3.67;;
15958;SDS011;8078;47.822;9.402;2022-08-14T04:45:24;3.53;;;3.22;;
15958;SDS011;8078;47.822;9.402;2022-08-14T04:47:56;4.00;;;3.58;;
15958;SDS011;8078;47.822;9.402;2022-08-14T04:50:38;4.72;;;3.45;;
15958;SDS011;8078;47.822;9.402;2022-08-14T04:53:06;4.80;;;3.63;;
15958;SDS011;8078;47.822;9.402;2022-08-14T04:55:34;8.13;;;3.47;;
15958;SDS011;8078;47.822;9.402;2022-08-14T04:58:02;4.35;;;3.55;;
15958;SDS011;8078;47.822;9.402;2022-08-14T05:00:28;3.92;;;3.28;;
15958;SDS011;8078;47.822;9.402;2022-08-14T05:02:54;3.70;;;3.30;;
15958;SDS011;8078;47.822;9.402;2022-08-14T05:05:21;3.50;;;3.20;;
15958;SDS011;8078;47.822;9.402;2022-08-14T05:07:48;6.28;;;3.35;;
15958;SDS011;8078;47.822;9.402;2022-08-14T05:10:15;5.00;;;3.55;;
15958;SDS011;8078;47.822;9.402;2022-08-14T05:12:40;4.18;;;3.55;;
15958;SDS011;8078;47.822;9.402;2022-08-14T05:15:06;3.47;;;3.05;;
15958;SDS011;8078;47.822;9.402;2022-08-14T05:17:32;5.82;;;3.30;;
15958;SDS011;8078;47.822;9.402;2022-08-14T05:19:58;3.90;;;3.53;;
15958;SDS011;8078;47.822;9.402;2022-08-14T05:22:25;4.68;;;3.30;;
15958;SDS011;8078;47.822;9.402;2022-08-14T05:24:51;3.50;;;3.05;;
15958;SDS011;8078;47.822;9.402;2022-08-14T05:27:17;3.28;;;2.97;;
15958;SDS011;8078;47.822;9.402;2022-08-14T05:29:44;4.32;;;3.10;;
15958;SDS011;8078;47.822;9.402;2022-08-14T05:32:11;3.70;;;2.75;;
15958;SDS011;8078;47.822;9.402;2022-08-14T05:34:39;3.53;;;2.95;;
15958;SDS011;8078;47.822;9.402;2022-08-14T05:37:05;3.58;;;3.05;;
15958;SDS011;8078;47.822;9.402;2022-08-14T05:39:31;3.53;;;3.08;;
15958;SDS011;8078;47.822;9.402;2022-08-14T05:41:56;3.63;;;3.33;;
15958;SDS011;8078;47.822;9.402;2022-08-14T05:44:22;4.78;;;3.60;;
15958;SDS011;8078;47.822;9.402;2022-08-14T05:46:48;3.83;;;3.30;;
15958;SDS011;8078;47.822;9.402;2022-08-14T05:49:14;4.30;;;3.08;;
15958;SDS011;8078;47.822;9.402;2022-08-14T05:51:39;2.78;;;2.58;;
15958;SDS011;8078;47.822;9.402;2022-08-14T05:54:05;3.63;;;3.22;;
15958;SDS011;8078;47.822;9.402;2022-08-14T05:56:31;3.55;;;3.25;;
15958;SDS011;8078;47.822;9.402;2022-08-14T05:58:57;3.63;;;3.33;;
15958;SDS011;8078;47.822;9.402;2022-08-14T06:01:23;3.60;;;3.25;;
15958;SDS011;8078;47.822;9.402;2022-08-14T06:03:49;4.47;;;3.67;;
15958;SDS011;8078;47.822;9.402;2022-08-14T06:06:14;4.00;;;3.10;;
15958;SDS011;8078;47.822;9.402;2022-08-14T06:08:42;4.38;;;3.67;;
15958;SDS011;8078;47.822;9.402;2022-08-14T06:11:07;3.45;;;3.15;;
15958;SDS011;8078;47.822;9.402;2022-08-14T06:13:35;5.75;;;3.28;;
15958;SDS011;8078;47.822;9.402;2022-08-14T06:16:02;3.63;;;3.33;;
15958;SDS011;8078;47.822;9.402;2022-08-14T06:18:28;5.85;;;3.50;;
15958;SDS011;8078;47.822;9.402;2022-08-14T06:20:54;8.88;;;3.63;;
15958;SDS011;8078;47.822;9.402;2022-08-14T06:23:19;4.05;;;2.90;;
15958;SDS011;8078;47.822;9.402;2022-08-14T06:25:45;4.22;;;3.00;;
15958;SDS011;8078;47.822;9.402;2022-08-14T06:28:15;3.50;;;3.17;;
15958;SDS011;8078;47.822;9.402;2022-08-14T06:30:41;3.30;;;3.00;;
15958;SDS011;8078;47.822;9.402;2022-08-14T06:33:07;3.40;;;3.10;;
15958;SDS011;8078;47.822;9.402;2022-08-14T06:35:33;3.40;;;3.10;;
15958;SDS011;8078;47.822;9.402;2022-08-14T06:37:59;3.67;;;3.38;;
15958;SDS011;8078;47.822;9.402;2022-08-14T06:42:52;3.70;;;3.40;;
15958;SDS011;8078;47.822;9.402;2022-08-14T06:45:18;4.05;;;3.20;;
15958;SDS011;8078;47.822;9.402;2022-08-14T06:47:44;4.07;;;2.97;;
15958;SDS011;8078;47.822;9.402;2022-08-14T06:50:12;5.05;;;3.17;;
15958;SDS011;8078;47.822;9.402;2022-08-14T06:52:40;3.90;;;3.30;;
15958;SDS011;8078;47.822;9.402;2022-08-14T06:55:07;3.45;;;3.15;;
15958;SDS011;8078;47.822;9.402;2022-08-14T06:57:35;3.15;;;2.85;;
15958;SDS011;8078;47.822;9.402;2022-08-14T07:00:12;3.67;;;3.13;;
15958;SDS011;8078;47.822;9.402;2022-08-14T07:02:42;2.88;;;2.67;;
15958;SDS011;8078;47.822;9.402;2022-08-14T07:05:27;3.10;;;2.60;;
15958;SDS011;8078;47.822;9.402;2022-08-14T07:08:20;3.00;;;2.70;;
15958;SDS011;8078;47.822;9.402;2022-08-14T07:10:51;7.15;;;2.85;;
15958;SDS011;8078;47.822;9.402;2022-08-14T07:13:19;2.53;;;2.20;;
15958;SDS011;8078;47.822;9.402;2022-08-14T07:15:46;3.30;;;2.58;;
15958;SDS011;8078;47.822;9.402;2022-08-14T07:18:17;5.95;;;2.83;;
15958;SDS011;8078;47.822;9.402;2022-08-14T07:20:46;2.95;;;2.60;;
15958;SDS011;8078;47.822;9.402;2022-08-14T07:23:12;3.35;;;3.05;;
15958;SDS011;8078;47.822;9.402;2022-08-14T07:25:38;2.80;;;2.60;;
15958;SDS011;8078;47.822;9.402;2022-08-14T07:28:09;2.90;;;2.30;;
15958;SDS011;8078;47.822;9.402;2022-08-14T07:30:43;3.20;;;2.30;;
15958;SDS011;8078;47.822;9.402;2022-08-14T07:33:09;4.20;;;2.67;;
15958;SDS011;8078;47.822;9.402;2022-08-14T07:35:36;2.80;;;2.60;;
15958;SDS011;8078;47.822;9.402;2022-08-14T07:38:05;2.70;;;2.50;;
15958;SDS011;8078;47.822;9.402;2022-08-14T07:40:31;4.82;;;2.78;;
15958;SDS011;8078;47.822;9.402;2022-08-14T07:42:58;2.80;;;2.60;;
15958;SDS011;8078;47.822;9.402;2022-08-14T07:45:24;3.03;;;2.75;;
15958;SDS011;8078;47.822;9.402;2022-08-14T07:47:50;3.80;;;2.60;;
15958;SDS011;8078;47.822;9.402;2022-08-14T07:50:17;2.55;;;2.33;;
15958;SDS011;8078;47.822;9.402;2022-08-14T07:52:44;3.40;;;2.33;;
15958;SDS011;8078;47.822;9.402;2022-08-14T07:55:12;2.70;;;2.47;;
15958;SDS011;8078;47.822;9.402;2022-08-14T07:57:39;2.70;;;2.50;;
15958;SDS011;8078;47.822;9.402;2022-08-14T08:00:06;2.90;;;2.60;;
15958;SDS011;8078;47.822;9.402;2022-08-14T08:02:35;3.95;;;2.22;;
15958;SDS011;8078;47.822;9.402;2022-08-14T08:05:07;3.15;;;2.38;;
15958;SDS011;8078;47.822;9.402;2022-08-14T08:07:34;2.78;;;2.58;;
15958;SDS011;8078;47.822;9.402;2022-08-14T08:10:43;3.33;;;2.40;;
15958;SDS011;8078;47.822;9.402;2022-08-14T08:15:30;2.72;;;2.38;;
15958;SDS011;8078;47.822;9.402;2022-08-14T08:17:58;4.05;;;2.45;;
15958;SDS011;8078;47.822;9.402;2022-08-14T08:20:29;3.28;;;2.97;;
15958;SDS011;8078;47.822;9.402;2022-08-14T08:22:57;4.18;;;2.63;;
15958;SDS011;8078;47.822;9.402;2022-08-14T08:25:24;4.22;;;2.50;;
15958;SDS011;8078;47.822;9.402;2022-08-14T08:28:02;3.78;;;2.95;;
15958;SDS011;8078;47.822;9.402;2022-08-14T08:30:33;2.92;;;2.47;;
15958;SDS011;8078;47.822;9.402;2022-08-14T08:33:02;3.00;;;2.55;;
15958;SDS011;8078;47.822;9.402;2022-08-14T08:35:30;3.60;;;3.30;;
15958;SDS011;8078;47.822;9.402;2022-08-14T08:38:19;3.08;;;2.75;;
15958;SDS011;8078;47.822;9.402;2022-08-14T08:40:48;4.35;;;2.40;;
15958;SDS011;8078;47.822;9.402;2022-08-14T08:45:43;2.60;;;2.40;;
15958;SDS011;8078;47.822;9.402;2022-08-14T08:48:14;3.00;;;2.67;;
15958;SDS011;8078;47.822;9.402;2022-08-14T08:50:39;3.30;;;2.83;;
15958;SDS011;8078;47.822;9.402;2022-08-14T08:53:06;5.40;;;2.33;;
15958;SDS011;8078;47.822;9.402;2022-08-14T08:55:37;2.30;;;2.08;;
15958;SDS011;8078;47.822;9.402;2022-08-14T08:58:08;4.35;;;2.30;;
15958;SDS011;8078;47.822;9.402;2022-08-14T09:00:36;2.38;;;2.17;;
15958;SDS011;8078;47.822;9.402;2022-08-14T09:03:07;2.58;;;1.88;;
15958;SDS011;8078;47.822;9.402;2022-08-14T09:05:36;2.20;;;2.00;;
15958;SDS011;8078;47.822;9.402;2022-08-14T09:08:21;2.40;;;1.60;;
15958;SDS011;8078;47.822;9.402;2022-08-14T09:10:48;2.10;;;1.90;;
15958;SDS011;8078;47.822;9.402;2022-08-14T09:13:14;2.17;;;1.95;;
15958;SDS011;8078;47.822;9.402;2022-08-14T09:15:41;2.17;;;1.77;;
15958;SDS011;8078;47.822;9.402;2022-08-14T09:18:09;3.40;;;1.95;;
15958;SDS011;8078;47.822;9.402;2022-08-14T09:20:37;2.47;;;1.85;;
15958;SDS011;8078;47.822;9.402;2022-08-14T09:23:05;2.10;;;1.90;;
15958;SDS011;8078;47.822;9.402;2022-08-14T09:25:31;2.58;;;2.00;;
15958;SDS011;8078;47.822;9.402;2022-08-14T09:27:57;3.92;;;1.70;;
15958;SDS011;8078;47.822;9.402;2022-08-14T09:30:23;2.05;;;1.58;;
15958;SDS011;8078;47.822;9.402;2022-08-14T09:32:55;3.92;;;1.90;;
15958;SDS011;8078;47.822;9.402;2022-08-14T09:46:18;3.42;;;1.92;;
15958;SDS011;8078;47.822;9.402;2022-08-14T09:48:44;2.10;;;1.90;;
15958;SDS011;8078;47.822;9.402;2022-08-14T09:51:19;2.20;;;2.00;;
15958;SDS011;8078;47.822;9.402;2022-08-14T09:54:00;3.47;;;1.80;;
15958;SDS011;8078;47.822;9.402;2022-08-14T09:56:41;1.98;;;1.80;;
15958;SDS011;8078;47.822;9.402;2022-08-14T10:01:13;1.90;;;1.80;;
15958;SDS011;8078;47.822;9.402;2022-08-14T10:03:47;1.73;;;1.63;;
15958;SDS011;8078;47.822;9.402;2022-08-14T10:06:18;1.65;;;1.55;;
15958;SDS011;8078;47.822;9.402;2022-08-14T10:08:52;1.88;;;1.60;;
15958;SDS011;8078;47.822;9.402;2022-08-14T10:11:25;1.85;;;1.70;;
15958;SDS011;8078;47.822;9.402;2022-08-14T10:13:56;1.70;;;1.60;;
15958;SDS011;8078;47.822;9.402;2022-08-14T10:16:24;1.60;;;1.50;;
15958;SDS011;8078;47.822;9.402;2022-08-14T10:19:27;1.80;;;1.70;;
15958;SDS011;8078;47.822;9.402;2022-08-14T10:22:00;2.63;;;1.80;;
15958;SDS011;8078;47.822;9.402;2022-08-14T10:24:43;2.72;;;2.00;;
15958;SDS011;8078;47.822;9.402;2022-08-14T10:27:17;1.80;;;1.70;;
15958;SDS011;8078;47.822;9.402;2022-08-14T10:29:47;4.32;;;1.50;;
15958;SDS011;8078;47.822;9.402;2022-08-14T10:32:15;1.60;;;1.50;;
15958;SDS011;8078;47.822;9.402;2022-08-14T10:34:40;3.17;;;1.67;;
15958;SDS011;8078;47.822;9.402;2022-08-14T10:37:13;3.17;;;1.50;;
15958;SDS011;8078;47.822;9.402;2022-08-14T10:39:41;1.98;;;1.50;;
15958;SDS011;8078;47.822;9.402;2022-08-14T10:42:10;1.83;;;1.70;;
15958;SDS011;8078;47.822;9.402;2022-08-14T10:44:41;2.13;;;1.50;;
15958;SDS011;8078;47.822;9.402;2022-08-14T10:48:41;2.13;;;1.60;;
15958;SDS011;8078;47.822;9.402;2022-08-14T10:51:27;2.20;;;1.52;;
15958;SDS011;8078;47.822;9.402;2022-08-14T10:53:53;2.75;;;1.50;;
15958;SDS011;8078;47.822;9.402;2022-08-14T10:56:27;2.00;;;1.73;;
15958;SDS011;8078;47.822;9.402;2022-08-14T10:59:06;1.70;;;1.60;;
15958;SDS011;8078;47.822;9.402;2022-08-14T11:01:33;2.33;;;2.05;;
15958;SDS011;8078;47.822;9.402;2022-08-14T11:04:04;3.10;;;2.00;;
15958;SDS011;8078;47.822;9.402;2022-08-14T11:06:29;4.50;;;1.90;;
15958;SDS011;8078;47.822;9.402;2022-08-14T11:08:57;2.75;;;1.70;;
15958;SDS011;8078;47.822;9.402;2022-08-14T11:11:23;1.80;;;1.50;;
15958;SDS011;8078;47.822;9.402;2022-08-14T11:13:53;2.20;;;2.00;;
15958;SDS011;8078;47.822;9.402;2022-08-14T11:16:21;2.13;;;1.70;;
15958;SDS011;8078;47.822;9.402;2022-08-14T11:18:48;2.00;;;1.90;;
15958;SDS011;8078;47.822;9.402;2022-08-14T11:21:15;2.05;;;1.77;;
15958;SDS011;8078;47.822;9.402;2022-08-14T11:23:46;2.30;;;1.73;;
15958;SDS011;8078;47.822;9.402;2022-08-14T11:26:13;1.88;;;1.77;;
15958;SDS011;8078;47.822;9.402;2022-08-14T11:28:44;1.73;;;1.63;;
15958;SDS011;8078;47.822;9.402;2022-08-14T11:31:13;2.35;;;1.70;;
15958;SDS011;8078;47.822;9.402;2022-08-14T11:33:46;3.05;;;1.92;;
15958;SDS011;8078;47.822;9.402;2022-08-14T11:36:12;1.70;;;1.60;;
15958;SDS011;8078;47.822;9.402;2022-08-14T11:38:39;2.15;;;1.95;;
15958;SDS011;8078;47.822;9.402;2022-08-14T11:41:06;2.22;;;1.80;;
15958;SDS011;8078;47.822;9.402;2022-08-14T11:43:39;2.00;;;1.80;;
15958;SDS011;8078;47.822;9.402;2022-08-14T11:46:09;2.10;;;1.90;;
15958;SDS011;8078;47.822;9.402;2022-08-14T11:49:10;2.08;;;1.95;;
15958;SDS011;8078;47.822;9.402;2022-08-14T11:51:29;1.80;;;1.70;;
15958;SDS011;8078;47.822;9.402;2022-08-14T11:53:56;2.35;;;1.85;;
15958;SDS011;8078;47.822;9.402;2022-08-14T11:56:32;1.83;;;1.73;;
15958;SDS011;8078;47.822;9.402;2022-08-14T11:59:04;2.08;;;1.88;;
15958;SDS011;8078;47.822;9.402;2022-08-14T12:01:31;1.90;;;1.80;;
15958;SDS011;8078;47.822;9.402;2022-08-14T12:04:10;2.10;;;2.00;;
15958;SDS011;8078;47.822;9.402;2022-08-14T12:06:48;1.95;;;1.85;;
15958;SDS011;8078;47.822;9.402;2022-08-14T12:09:35;8.18;;;2.40;;
15958;SDS011;8078;47.822;9.402;2022-08-14T12:12:12;2.30;;;2.10;;
15958;SDS011;8078;47.822;9.402;2022-08-14T12:14:48;2.92;;;1.88;;
15958;SDS011;8078;47.822;9.402;2022-08-14T12:17:27;2.25;;;2.05;;
15958;SDS011;8078;47.822;9.402;2022-08-14T12:19:54;2.72;;;1.90;;
15958;SDS011;8078;47.822;9.402;2022-08-14T12:25:08;2.45;;;2.08;;
15958;SDS011;8078;47.822;9.402;2022-08-14T12:30:07;2.42;;;1.98;;
15958;SDS011;8078;47.822;9.402;2022-08-14T12:32:43;3.00;;;2.10;;
15958;SDS011;8078;47.822;9.402;2022-08-14T12:35:11;2.17;;;2.00;;
15958;SDS011;8078;47.822;9.402;2022-08-14T12:37:37;2.20;;;1.90;;
15958;SDS011;8078;47.822;9.402;2022-08-14T12:40:13;2.15;;;1.95;;
15958;SDS011;8078;47.822;9.402;2022-08-14T12:42:40;2.13;;;1.80;;
15958;SDS011;8078;47.822;9.402;2022-08-14T12:45:08;2.33;;;2.13;;
15958;SDS011;8078;47.822;9.402;2022-08-14T12:47:41;2.40;;;1.92;;
15958;SDS011;8078;47.822;9.402;2022-08-14T12:50:10;3.53;;;2.10;;
15958;SDS011;8078;47.822;9.402;2022-08-14T12:52:38;2.42;;;2.22;;
15958;SDS011;8078;47.822;9.402;2022-08-14T12:55:09;3.88;;;2.75;;
15958;SDS011;8078;47.822;9.402;2022-08-14T12:57:40;4.80;;;2.67;;
15958;SDS011;8078;47.822;9.402;2022-08-14T13:00:11;2.28;;;2.08;;
15958;SDS011;8078;47.822;9.402;2022-08-14T13:02:47;4.18;;;2.20;;
15958;SDS011;8078;47.822;9.402;2022-08-14T13:05:15;5.22;;;2.22;;
15958;SDS011;8078;47.822;9.402;2022-08-14T13:07:42;4.68;;;2.20;;
15958;SDS011;8078;47.822;9.402;2022-08-14T13:10:08;3.25;;;2.13;;
15958;SDS011;8078;47.822;9.402;2022-08-14T13:12:36;5.03;;;2.40;;
15958;SDS011;8078;47.822;9.402;2022-08-14T13:15:03;2.50;;;2.30;;
15958;SDS011;8078;47.822;9.402;2022-08-14T13:17:31;6.32;;;2.53;;
15958;SDS011;8078;47.822;9.402;2022-08-14T13:20:02;6.53;;;2.72;;
15958;SDS011;8078;47.822;9.402;2022-08-14T13:22:29;2.70;;;2.35;;
15958;SDS011;8078;47.822;9.402;2022-08-14T13:24:55;2.88;;;2.22;;
15958;SDS011;8078;47.822;9.402;2022-08-14T13:27:21;2.40;;;2.20;;
15958;SDS011;8078;47.822;9.402;2022-08-14T13:29:49;2.92;;;2.50;;
15958;SDS011;8078;47.822;9.402;2022-08-14T13:32:20;2.50;;;2.30;;
15958;SDS011;8078;47.822;9.402;2022-08-14T13:34:48;4.25;;;2.60;;
15958;SDS011;8078;47.822;9.402;2022-08-14T13:37:14;2.30;;;2.00;;
15958;SDS011;8078;47.822;9.402;2022-08-14T13:39:45;3.28;;;2.15;;
15958;SDS011;8078;47.822;9.402;2022-08-14T13:42:19;2.40;;;2.20;;
15958;SDS011;8078;47.822;9.402;2022-08-14T13:44:50;2.75;;;2.30;;
15958;SDS011;8078;47.822;9.402;2022-08-14T13:47:21;3.70;;;2.40;;
15958;SDS011;8078;47.822;9.402;2022-08-14T13:49:48;4.13;;;2.33;;
15958;SDS011;8078;47.822;9.402;2022-08-14T13:52:18;4.53;;;2.20;;
15958;SDS011;8078;47.822;9.402;2022-08-14T13:54:46;2.70;;;2.50;;
15958;SDS011;8078;47.822;9.402;2022-08-14T13:57:14;3.72;;;2.30;;
15958;SDS011;8078;47.822;9.402;2022-08-14T13:59:44;2.33;;;2.13;;
15958;SDS011;8078;47.822;9.402;2022-08-14T14:02:11;3.33;;;2.50;;
15958;SDS011;8078;47.822;9.402;2022-08-14T14:04:38;3.72;;;2.50;;
15958;SDS011;8078;47.822;9.402;2022-08-14T14:07:07;3.97;;;2.33;;
15958;SDS011;8078;47.822;9.402;2022-08-14T14:09:36;3.20;;;3.00;;
15958;SDS011;8078;47.822;9.402;2022-08-14T14:12:04;5.97;;;2.67;;
15958;SDS011;8078;47.822;9.402;2022-08-14T14:14:32;3.95;;;2.83;;
15958;SDS011;8078;47.822;9.402;2022-08-14T14:17:00;3.28;;;2.50;;
15958;SDS011;8078;47.822;9.402;2022-08-14T14:19:26;2.95;;;2.55;;
15958;SDS011;8078;47.822;9.402;2022-08-14T14:21:54;2.72;;;2.50;;
15958;SDS011;8078;47.822;9.402;2022-08-14T14:24:21;2.72;;;2.35;;
15958;SDS011;8078;47.822;9.402;2022-08-14T14:26:47;3.90;;;2.53;;
15958;SDS011;8078;47.822;9.402;2022-08-14T14:29:13;5.07;;;2.78;;
15958;SDS011;8078;47.822;9.402;2022-08-14T14:31:39;2.60;;;2.40;;
15958;SDS011;8078;47.822;9.402;2022-08-14T14:34:05;2.97;;;2.40;;
15958;SDS011;8078;47.822;9.402;2022-08-14T14:36:36;3.38;;;2.65;;
15958;SDS011;8078;47.822;9.402;2022-08-14T14:39:03;3.90;;;2.90;;
15958;SDS011;8078;47.822;9.402;2022-08-14T14:41:33;5.78;;;2.90;;
15958;SDS011;8078;47.822;9.402;2022-08-14T14:44:03;6.00;;;2.70;;
15958;SDS011;8078;47.822;9.402;2022-08-14T14:46:36;3.00;;;2.70;;
15958;SDS011;8078;47.822;9.402;2022-08-14T14:49:04;3.00;;;2.80;;
15958;SDS011;8078;47.822;9.402;2022-08-14T14:51:31;3.75;;;3.17;;
15958;SDS011;8078;47.822;9.402;2022-08-14T14:53:56;3.90;;;2.67;;
15958;SDS011;8078;47.822;9.402;2022-08-14T14:56:22;2.90;;;2.70;;
15958;SDS011;8078;47.822;9.402;2022-08-14T14:58:49;4.50;;;2.75;;
15958;SDS011;8078;47.822;9.402;2022-08-14T15:01:15;3.08;;;2.78;;
15958;SDS011;8078;47.822;9.402;2022-08-14T15:03:47;5.97;;;2.85;;
15958;SDS011;8078;47.822;9.402;2022-08-14T15:06:13;2.90;;;2.47;;
15958;SDS011;8078;47.822;9.402;2022-08-14T15:08:39;3.42;;;2.60;;
15958;SDS011;8078;47.822;9.402;2022-08-14T15:11:05;4.80;;;2.83;;
15958;SDS011;8078;47.822;9.402;2022-08-14T15:13:32;4.63;;;3.00;;
15958;SDS011;8078;47.822;9.402;2022-08-14T15:15:58;3.65;;;2.83;;
15958;SDS011;8078;47.822;9.402;2022-08-14T15:18:24;4.30;;;3.20;;
15958;SDS011;8078;47.822;9.402;2022-08-14T15:20:50;3.60;;;3.30;;
15958;SDS011;8078;47.822;9.402;2022-08-14T15:23:21;4.22;;;3.28;;
15958;SDS011;8078;47.822;9.402;2022-08-14T15:25:47;3.88;;;3.22;;
15958;SDS011;8078;47.822;9.402;2022-08-14T15:28:13;5.45;;;3.33;;
15958;SDS011;8078;47.822;9.402;2022-08-14T15:30:39;4.78;;;3.70;;
15958;SDS011;8078;47.822;9.402;2022-08-14T15:33:06;4.13;;;3.72;;
15958;SDS011;8078;47.822;9.402;2022-08-14T15:35:32;5.82;;;3.50;;
15958;SDS011;8078;47.822;9.402;2022-08-14T15:37:58;4.13;;;3.28;;
15958;SDS011;8078;47.822;9.402;2022-08-14T15:40:33;6.22;;;3.30;;